Time;durP1;ratioP1;P1;durP2;ratioP2;P2;SDS_P1;SDS_P2;PMS_P1;PMS_P2;Temp;Humidity;BMP_temperature;BMP_pressure;BME280_temperature;BME280_humidity;BME280_pressure;Samples;Min_cycle;Max_cycle;Signal;HPM_P1;HPM_P2
2024/01/27 00:01:58;;;;;;;2.40;1.90;;;;;;;21.84;28.68;95504.41;6212691;28;109314;-58
2024/01/27 00:05:01;;;;;;;2.93;2.00;;;;;;;21.88;28.40;95478.00;6215477;28;109365;-58
2024/01/27 00:08:05;;;;;;;2.70;1.90;;;;;;;21.86;28.92;95472.19;6233814;27;110075;-58
2024/01/27 00:11:09;;;;;;;2.83;2.20;;;;;;;21.86;28.48;95472.19;6223090;27;109426;-58
2024/01/27 00:14:12;;;;;;;2.00;1.70;;;;;;;21.87;28.78;95482.53;6223899;27;108941;-58
2024/01/27 00:17:15;;;;;;;2.10;1.90;;;;;;;21.88;28.59;95483.34;6204571;28;109280;-60
2024/01/27 00:20:18;;;;;;;2.60;1.90;;;;;;;21.87;28.50;95473.75;6218776;28;110206;-61
2024/01/27 00:23:22;;;;;;;2.10;1.80;;;;;;;21.87;28.37;95453.25;6214467;28;110108;-60
2024/01/27 00:26:25;;;;;;;2.53;2.20;;;;;;;21.86;28.25;95459.66;6224385;27;109145;-60
2024/01/27 00:29:28;;;;;;;3.10;2.07;;;;;;;21.90;28.23;95467.84;6215551;28;109274;-61
2024/01/27 00:32:33;;;;;;;2.50;2.10;;;;;;;21.86;28.14;95475.63;6210490;28;109106;-61
2024/01/27 00:35:37;;;;;;;2.90;2.30;;;;;;;21.86;28.30;95475.63;6226479;28;110260;-60
2024/01/27 00:38:41;;;;;;;2.50;2.23;;;;;;;21.88;28.42;95467.34;6200070;28;109236;-60
2024/01/27 00:41:44;;;;;;;2.77;2.17;;;;;;;21.85;28.25;95468.72;6228410;28;108934;-60
2024/01/27 00:44:47;;;;;;;3.07;2.10;;;;;;;21.85;28.19;95466.06;6224901;28;110315;-60
2024/01/27 00:47:51;;;;;;;2.70;2.13;;;;;;;21.85;28.23;95465.28;6230231;27;109223;-61
2024/01/27 00:50:54;;;;;;;2.43;2.23;;;;;;;21.83;28.27;95468.19;6202273;28;110116;-60
2024/01/27 00:53:59;;;;;;;2.73;2.53;;;;;;;21.83;28.19;95470.88;6227013;28;109309;-60
2024/01/27 00:57:02;;;;;;;3.27;2.63;;;;;;;21.83;27.83;95475.41;6220824;28;109757;-60
2024/01/27 01:00:06;;;;;;;2.47;2.27;;;;;;;21.83;28.19;95472.75;6220210;27;109618;-59
2024/01/27 01:03:09;;;;;;;3.00;2.20;;;;;;;21.83;28.00;95468.19;6229207;27;109089;-61
2024/01/27 01:06:12;;;;;;;3.13;2.83;;;;;;;21.83;27.59;95470.88;6209720;28;110697;-59
2024/01/27 01:09:17;;;;;;;3.90;2.63;;;;;;;21.83;27.99;95457.53;6215552;28;110004;-60
2024/01/27 01:12:20;;;;;;;3.10;2.70;;;;;;;21.83;27.56;95452.22;6224428;27;109595;-59
2024/01/27 01:15:23;;;;;;;3.07;2.73;;;;;;;21.82;27.60;95455.97;6234862;27;109880;-59
2024/01/27 01:18:26;;;;;;;3.60;2.63;;;;;;;21.81;27.86;95462.34;6233548;27;109090;-61
2024/01/27 01:21:30;;;;;;;3.30;3.00;;;;;;;21.83;27.74;95465.53;6225171;28;109485;-61
2024/01/27 01:24:34;;;;;;;3.60;2.80;;;;;;;21.83;27.98;95468.19;6208624;28;110069;-61
2024/01/27 01:27:37;;;;;;;3.00;2.70;;;;;;;21.84;27.83;95459.13;6234105;27;109024;-56
2024/01/27 01:30:40;;;;;;;3.50;2.80;;;;;;;21.84;27.51;95448.47;6230488;27;109061;-56
2024/01/27 01:33:44;;;;;;;2.90;2.50;;;;;;;21.81;27.71;95449.81;6221144;27;110280;-56
2024/01/27 01:36:47;;;;;;;2.93;2.63;;;;;;;21.83;27.80;95438.91;6219106;28;110330;-58
2024/01/27 01:39:52;;;;;;;3.20;2.90;;;;;;;21.84;27.67;95440.47;6217863;28;110151;-56
2024/01/27 01:42:55;;;;;;;3.80;2.87;;;;;;;21.87;27.53;95444.44;6253502;27;109141;-56
2024/01/27 01:45:58;;;;;;;4.00;3.40;;;;;;;21.83;27.53;95449.56;6231664;27;110810;-59
2024/01/27 01:49:01;;;;;;;3.90;3.60;;;;;;;21.84;27.80;95448.47;6227209;27;109211;-56
2024/01/27 01:52:06;;;;;;;3.40;2.87;;;;;;;21.85;27.39;95450.06;6224112;27;109369;-56
2024/01/27 01:55:10;;;;;;;4.50;2.70;;;;;;;21.85;27.50;95443.97;6221312;28;109207;-56
2024/01/27 01:58:13;;;;;;;3.63;3.10;;;;;;;21.83;27.75;95433.56;6197896;28;109225;-56
2024/01/27 02:01:18;;;;;;;3.10;2.90;;;;;;;21.83;27.50;95438.09;6218405;27;110153;-58
2024/01/27 02:04:21;;;;;;;3.50;3.20;;;;;;;21.86;27.55;95434.88;6215123;28;110080;-56
2024/01/27 02:07:24;;;;;;;4.50;3.50;;;;;;;21.85;27.20;95427.97;6233031;27;110064;-57
2024/01/27 02:10:35;;;;;;;3.50;3.20;;;;;;;21.83;27.44;95428.25;6214710;27;109207;-57
2024/01/27 02:13:39;;;;;;;3.70;3.40;;;;;;;21.84;27.25;95416.50;6212811;28;109251;-57
2024/01/27 02:16:42;;;;;;;4.70;3.10;;;;;;;21.81;27.04;95407.19;6226570;28;109272;-57
2024/01/27 02:19:45;;;;;;;4.57;3.47;;;;;;;21.83;27.47;95404.25;6231013;28;110942;-58
2024/01/27 02:22:48;;;;;;;4.27;3.10;;;;;;;21.85;27.18;95399.47;6229417;28;109334;-57
2024/01/27 02:25:52;;;;;;;4.57;3.67;;;;;;;21.84;27.20;95413.84;6235573;28;110215;-56
2024/01/27 02:28:55;;;;;;;3.80;3.20;;;;;;;21.82;27.48;95418.66;6228687;27;109300;-56
2024/01/27 02:31:58;;;;;;;3.83;3.50;;;;;;;21.83;27.03;95414.91;6226356;27;109117;-57
2024/01/27 02:35:01;;;;;;;5.60;4.00;;;;;;;21.84;26.87;95416.50;6236807;27;109293;-57
2024/01/27 02:38:05;;;;;;;3.80;3.30;;;;;;;21.85;27.21;95415.44;6227800;27;109083;-57
2024/01/27 02:41:10;;;;;;;3.73;3.43;;;;;;;21.86;27.02;95408.25;6226520;27;110036;-57
2024/01/27 02:44:13;;;;;;;3.70;3.40;;;;;;;21.87;27.38;95423.13;6204218;28;109262;-57
2024/01/27 02:47:16;;;;;;;4.10;3.70;;;;;;;21.83;27.11;95414.91;6237426;27;109085;-57
2024/01/27 02:50:19;;;;;;;5.00;3.30;;;;;;;21.83;27.12;95406.13;6224611;27;109234;-57
2024/01/27 02:53:22;;;;;;;4.07;3.60;;;;;;;21.82;27.15;95405.34;6237267;27;109830;-58
2024/01/27 02:56:27;;;;;;;3.47;3.17;;;;;;;21.85;27.13;95404.78;6226070;27;110125;-57
2024/01/27 02:59:30;;;;;;;3.53;3.23;;;;;;;21.84;27.10;95411.16;6235584;27;109103;-57
2024/01/27 03:02:33;;;;;;;4.40;4.00;;;;;;;21.86;27.33;95414.34;6220494;27;109066;-59
2024/01/27 03:05:36;;;;;;;3.80;3.23;;;;;;;21.85;27.30;95422.66;6214961;28;109654;-58
2024/01/27 03:08:39;;;;;;;3.87;3.47;;;;;;;21.85;26.85;95412.00;6236112;27;109157;-57
2024/01/27 03:11:44;;;;;;;3.57;3.27;;;;;;;21.84;27.07;95424.50;6236238;27;109730;-56
2024/01/27 03:14:48;;;;;;;4.20;3.60;;;;;;;21.85;27.20;95423.44;6223176;27;109063;-57
2024/01/27 03:17:51;;;;;;;4.00;3.43;;;;;;;21.85;26.70;95419.97;6225349;27;109043;-56
2024/01/27 03:20:54;;;;;;;4.33;3.80;;;;;;;21.86;27.07;95408.25;6224161;27;109040;-57
2024/01/27 03:23:57;;;;;;;4.07;3.67;;;;;;;21.87;27.04;95415.16;6211710;28;109857;-57
2024/01/27 03:27:02;;;;;;;3.73;3.43;;;;;;;21.84;26.79;95400.50;6230553;27;109176;-58
2024/01/27 03:30:06;;;;;;;3.80;3.50;;;;;;;21.83;27.29;95406.13;6211408;28;109043;-58
2024/01/27 03:33:12;;;;;;;4.87;3.60;;;;;;;21.85;26.76;95401.34;6211353;28;109082;-57
2024/01/27 03:36:15;;;;;;;3.70;3.33;;;;;;;21.84;26.87;95419.16;6228804;28;110441;-58
2024/01/27 03:39:18;;;;;;;3.83;3.50;;;;;;;21.84;26.77;95429.81;6206119;28;109068;-57
2024/01/27 03:42:24;;;;;;;4.43;3.60;;;;;;;21.86;27.25;95416.22;6206102;28;109528;-58
2024/01/27 03:45:27;;;;;;;4.37;3.77;;;;;;;21.85;26.98;95407.44;6218502;28;109020;-57
2024/01/27 03:48:30;;;;;;;4.43;3.60;;;;;;;21.83;26.88;95414.13;6225513;28;108822;-59
2024/01/27 03:51:33;;;;;;;4.00;3.70;;;;;;;21.82;26.73;95402.69;6225478;27;109339;-59
2024/01/27 03:54:38;;;;;;;5.20;4.03;;;;;;;21.85;27.27;95401.34;6232432;27;109159;-60
2024/01/27 03:57:43;;;;;;;5.20;3.83;;;;;;;21.81;26.80;95396.53;6224941;27;109369;-60
2024/01/27 04:00:46;;;;;;;4.10;3.80;;;;;;;21.84;26.75;95403.19;6222580;27;109219;-60
2024/01/27 04:03:49;;;;;;;4.23;3.77;;;;;;;21.83;26.73;95404.25;6224600;27;109513;-59
2024/01/27 04:06:52;;;;;;;4.60;4.00;;;;;;;21.85;27.04;95394.13;6231670;27;109168;-60
2024/01/27 04:09:55;;;;;;;4.30;3.90;;;;;;;21.83;26.54;95396.28;6221635;28;110072;-59
2024/01/27 04:13:00;;;;;;;3.80;3.43;;;;;;;21.85;26.76;95399.47;6210709;28;110134;-60
2024/01/27 04:16:03;;;;;;;3.60;3.30;;;;;;;21.85;26.95;95391.47;6206119;28;109346;-59
2024/01/27 04:19:06;;;;;;;4.60;4.10;;;;;;;21.86;26.85;95390.38;6222535;28;109259;-59
2024/01/27 04:22:09;;;;;;;4.43;3.67;;;;;;;21.87;26.72;95389.28;6235344;27;110862;-59
2024/01/27 04:25:13;;;;;;;4.80;4.10;;;;;;;21.87;26.89;95378.63;6225275;27;110227;-60
2024/01/27 04:28:18;;;;;;;5.07;3.93;;;;;;;21.89;26.74;95376.47;6233077;27;109219;-59
2024/01/27 04:31:21;;;;;;;3.80;3.50;;;;;;;21.85;26.97;95391.47;6227838;27;109362;-59
2024/01/27 04:34:24;;;;;;;4.80;3.87;;;;;;;21.87;26.75;95391.97;6226994;27;110175;-59
2024/01/27 04:37:27;;;;;;;4.00;3.60;;;;;;;21.88;26.68;95395.41;6216336;28;109072;-59
2024/01/27 04:40:30;;;;;;;4.03;3.63;;;;;;;21.87;26.62;95391.97;6219107;28;109096;-59
2024/01/27 04:43:35;;;;;;;3.80;3.50;;;;;;;21.86;27.21;95390.38;6218370;27;108964;-59
2024/01/27 04:46:38;;;;;;;3.97;3.57;;;;;;;21.86;26.97;95393.03;6231749;28;108804;-59
2024/01/27 04:49:41;;;;;;;4.37;3.97;;;;;;;21.85;26.88;95380.81;6219343;27;110519;-59
2024/01/27 04:52:44;;;;;;;4.47;3.53;;;;;;;21.88;26.59;95382.88;6210194;28;110375;-59
2024/01/27 04:55:47;;;;;;;3.53;3.10;;;;;;;21.86;26.69;95387.72;6229619;28;110078;-59
2024/01/27 04:58:51;;;;;;;3.93;3.60;;;;;;;21.84;27.10;95395.19;6225761;27;109098;-60
2024/01/27 05:01:54;;;;;;;4.23;3.83;;;;;;;21.84;26.92;95392.53;6219294;27;109262;-59
2024/01/27 05:04:58;;;;;;;3.97;3.37;;;;;;;21.86;26.72;95395.72;6222374;27;109089;-59
2024/01/27 05:08:01;;;;;;;4.77;4.33;;;;;;;21.85;26.96;95404.00;6210208;28;108865;-59
2024/01/27 05:11:04;;;;;;;3.70;3.40;;;;;;;21.84;27.14;95405.06;6212908;28;110899;-59
2024/01/27 05:14:08;;;;;;;5.33;4.00;;;;;;;21.81;27.34;95406.41;6211224;27;110070;-59
2024/01/27 05:17:12;;;;;;;3.93;3.40;;;;;;;21.80;27.17;95408.28;6210598;28;109056;-59
2024/01/27 05:20:15;;;;;;;4.90;3.87;;;;;;;21.75;27.02;95407.59;6212850;28;108946;-60
2024/01/27 05:23:18;;;;;;;3.87;3.57;;;;;;;21.67;27.44;95408.25;6206023;27;110229;-58
2024/01/27 05:26:21;;;;;;;4.93;4.00;;;;;;;21.62;27.39;95408.34;6220422;28;110123;-59
2024/01/27 05:29:27;;;;;;;4.67;3.70;;;;;;;21.59;27.67;95409.75;6216843;28;109185;-59
2024/01/27 05:32:30;;;;;;;4.03;3.63;;;;;;;21.56;27.77;95409.53;6215363;27;109805;-59
2024/01/27 05:35:33;;;;;;;5.00;3.87;;;;;;;21.55;27.38;95403.44;6212701;28;111180;-58
2024/01/27 05:38:36;;;;;;;3.43;3.13;;;;;;;21.54;27.89;95409.03;6219658;28;109339;-59
2024/01/27 05:41:39;;;;;;;4.03;3.50;;;;;;;21.52;27.87;95409.34;6223685;27;109413;-59
2024/01/27 05:44:45;;;;;;;5.80;3.67;;;;;;;21.51;27.55;95410.44;6210392;28;109125;-59
2024/01/27 05:47:47;;;;;;;4.87;3.80;;;;;;;21.50;27.67;95406.94;6213116;28;109225;-58
2024/01/27 05:50:58;;;;;;;3.60;3.00;;;;;;;21.52;28.07;95420.78;6218542;28;109495;-59
2024/01/27 05:54:02;;;;;;;4.03;3.27;;;;;;;21.52;28.00;95420.00;6218698;28;109268;-59
2024/01/27 05:57:05;;;;;;;3.63;3.23;;;;;;;21.52;27.96;95420.00;6212276;27;111028;-59
2024/01/27 06:00:11;;;;;;;4.47;3.60;;;;;;;21.53;27.80;95421.56;6215075;27;110109;-59
2024/01/27 06:03:16;;;;;;;3.23;2.93;;;;;;;21.52;27.90;95423.44;6213939;28;109796;-58
2024/01/27 06:06:20;;;;;;;3.60;3.03;;;;;;;21.50;27.90;95417.59;6216124;28;109026;-59
2024/01/27 06:09:23;;;;;;;3.93;3.40;;;;;;;21.52;27.74;95426.09;6207418;28;110530;-57
2024/01/27 06:12:26;;;;;;;3.50;3.03;;;;;;;21.51;28.14;95429.84;6219355;27;110250;-57
2024/01/27 06:15:30;;;;;;;3.83;3.00;;;;;;;21.48;28.19;95434.94;6223167;27;109358;-58
2024/01/27 06:18:34;;;;;;;4.80;3.57;;;;;;;21.52;28.26;95446.63;6212193;27;109236;-58
2024/01/27 06:21:37;;;;;;;4.43;3.30;;;;;;;21.56;28.49;95442.28;6224212;27;110148;-58
2024/01/27 06:24:43;;;;;;;3.93;2.77;;;;;;;21.57;28.68;95449.19;6210107;27;109944;-58
2024/01/27 06:27:46;;;;;;;4.40;3.40;;;;;;;21.57;28.72;95456.38;6226318;27;110087;-58
2024/01/27 06:30:51;;;;;;;4.50;3.13;;;;;;;21.57;28.46;95464.38;6217295;28;110264;-58
2024/01/27 06:33:54;;;;;;;3.53;3.00;;;;;;;21.56;28.81;95463.59;6220776;28;109504;-57
2024/01/27 06:36:57;;;;;;;6.80;3.00;;;;;;;21.36;29.06;95463.91;6219957;27;109167;-56
2024/01/27 06:40:00;;;;;;;6.30;3.30;;;;;;;21.25;29.51;95452.63;6227575;27;109830;-58
2024/01/27 06:43:03;;;;;;;5.47;4.20;;;;;;;21.18;29.37;95466.31;6215754;27;110086;-57
2024/01/27 06:46:08;;;;;;;4.07;3.40;;;;;;;21.18;29.65;95476.16;6224075;27;109194;-56
2024/01/27 06:49:11;;;;;;;6.13;3.83;;;;;;;21.18;29.87;95473.50;6229775;27;109072;-57
2024/01/27 06:52:14;;;;;;;4.23;3.40;;;;;;;21.14;29.80;95475.94;6213399;28;110172;-59
2024/01/27 06:55:17;;;;;;;4.30;3.50;;;;;;;21.09;30.08;95484.00;6226231;27;110448;-57
2024/01/27 06:58:20;;;;;;;5.67;3.90;;;;;;;21.10;29.73;95479.47;6231624;27;109129;-57
2024/01/27 07:01:25;;;;;;;5.97;3.60;;;;;;;21.10;29.48;95468.81;6230476;27;109288;-55
2024/01/27 07:04:28;;;;;;;5.23;3.80;;;;;;;21.10;29.88;95466.16;6209785;27;109428;-58
2024/01/27 07:07:31;;;;;;;4.83;3.30;;;;;;;21.11;30.03;95457.09;6221522;27;109549;-58
2024/01/27 07:10:35;;;;;;;3.80;2.87;;;;;;;21.12;29.78;95453.34;6229857;27;111034;-57
2024/01/27 07:13:38;;;;;;;4.73;3.67;;;;;;;21.12;30.06;95440.06;6224981;27;110160;-57
2024/01/27 07:16:42;;;;;;;5.10;3.07;;;;;;;21.14;30.24;95430.69;6207518;28;110450;-59
2024/01/27 07:19:45;;;;;;;6.30;3.40;;;;;;;21.17;29.91;95437.31;6219405;27;109016;-61
2024/01/27 07:22:48;;;;;;;4.17;3.17;;;;;;;21.16;29.87;95451.69;6221637;28;109127;-60
2024/01/27 07:25:52;;;;;;;4.10;3.00;;;;;;;21.20;30.02;95450.84;6223012;27;109110;-61
2024/01/27 07:28:55;;;;;;;9.57;3.33;;;;;;;21.18;29.94;95453.00;6215283;27;109220;-63
2024/01/27 07:31:59;;;;;;;5.67;3.40;;;;;;;21.11;30.26;95470.41;6220751;27;109221;-60
2024/01/27 07:35:02;;;;;;;7.37;3.10;;;;;;;21.08;30.31;95477.09;6225086;28;109290;-61
2024/01/27 07:38:06;;;;;;;4.93;2.87;;;;;;;21.04;29.99;95472.63;6211225;27;109043;-64
2024/01/27 07:41:09;;;;;;;4.43;3.33;;;;;;;21.05;30.45;95503.50;6221794;27;109860;-59
2024/01/27 07:44:14;;;;;;;8.97;3.20;;;;;;;21.03;30.39;95514.41;6217153;27;109603;-61
2024/01/27 07:47:19;;;;;;;8.70;2.80;;;;;;;21.05;30.49;95511.47;6231501;27;109029;-61
2024/01/27 07:50:23;;;;;;;10.93;2.53;;;;;;;20.89;30.26;95492.25;6213021;27;111117;-61
2024/01/27 07:53:26;;;;;;;5.20;2.43;;;;;;;20.89;30.08;95503.66;6226632;27;108945;-60
2024/01/27 07:56:29;;;;;;;3.43;2.30;;;;;;;;;;6222525;27;109193;-61
2024/01/27 07:59:32;;;;;;;6.23;2.30;;;;;;;21.07;29.86;95546.56;6224952;28;109200;-61
2024/01/27 08:02:36;;;;;;;4.07;2.40;;;;;;;21.03;29.87;95529.56;6211824;27;109973;-61
2024/01/27 08:05:39;;;;;;;3.40;2.23;;;;;;;21.03;30.12;95532.22;6227624;27;109184;-61
2024/01/27 08:08:43;;;;;;;3.03;2.13;;;;;;;21.03;29.89;95524.25;6222667;28;109860;-62
2024/01/27 08:11:51;;;;;;;2.60;2.30;;;;;;;21.05;29.83;95522.13;6230594;27;109102;-63
2024/01/27 08:14:54;;;;;;;3.37;2.40;;;;;;;21.05;29.80;95532.75;6213813;28;109205;-62
2024/01/27 08:17:59;;;;;;;5.07;2.07;;;;;;;21.06;29.54;95534.34;6219659;27;109447;-62
2024/01/27 08:21:02;;;;;;;3.53;2.50;;;;;;;21.07;30.10;95525.28;6231517;28;113213;-61
2024/01/27 08:24:06;;;;;;;5.27;2.60;;;;;;;21.09;30.09;95541.75;6220343;27;109027;-61
2024/01/27 08:27:09;;;;;;;3.17;2.40;;;;;;;21.07;29.75;95511.97;6228166;27;109164;-57
2024/01/27 08:30:13;;;;;;;3.50;2.50;;;;;;;21.08;29.89;95526.88;6226022;27;110169;-57
2024/01/27 08:33:18;;;;;;;3.83;2.40;;;;;;;21.05;29.84;95508.81;6222948;27;110249;-58
2024/01/27 08:36:21;;;;;;;6.30;2.67;;;;;;;;;;6204739;28;109312;-56
2024/01/27 08:39:25;;;;;;;5.10;2.70;;;;;;;21.07;29.68;95531.41;6229263;28;109111;-58
2024/01/27 08:42:28;;;;;;;4.23;2.73;;;;;;;21.08;29.54;95508.25;6225221;27;110127;-58
2024/01/27 08:45:31;;;;;;;4.80;2.50;;;;;;;21.14;29.68;95499.09;6225691;27;109037;-55
2024/01/27 08:48:36;;;;;;;9.00;2.80;;;;;;;21.20;29.54;95532.56;6210382;27;109109;-57
2024/01/27 08:51:39;;;;;;;6.73;2.83;;;;;;;21.27;30.35;95514.34;6228442;28;108918;-58
2024/01/27 08:54:42;;;;;;;5.83;3.37;;;;;;;21.32;30.49;95494.84;6222918;27;110140;-57
2024/01/27 08:57:46;;;;;;;7.60;3.30;;;;;;;21.44;30.53;95488.00;6223429;27;110358;-57
2024/01/27 09:00:49;;;;;;;10.63;3.47;;;;;;;21.42;30.17;95508.78;6212990;28;109556;-56
2024/01/27 09:03:54;;;;;;;4.47;2.70;;;;;;;21.34;29.96;95504.16;6227445;27;109041;-58
2024/01/27 09:07:04;;;;;;;5.60;2.90;;;;;;;21.30;30.30;95486.34;6228117;28;110487;-56
2024/01/27 09:10:09;;;;;;;8.73;2.90;;;;;;;21.29;30.36;95484.78;6220936;27;109166;-56
2024/01/27 09:13:12;;;;;;;11.10;3.10;;;;;;;21.28;30.37;95497.28;6221803;27;109496;-59
2024/01/27 09:16:16;;;;;;;4.10;2.57;;;;;;;21.25;30.45;95505.06;6210565;28;109146;-57
2024/01/27 09:19:20;;;;;;;3.80;2.40;;;;;;;21.27;30.22;95487.72;6220380;27;109242;-57
2024/01/27 09:22:23;;;;;;;4.40;2.80;;;;;;;21.23;30.27;95497.38;6221504;27;110702;-57
2024/01/27 09:25:27;;;;;;;4.77;2.73;;;;;;;21.20;30.22;95505.94;6221052;28;110196;-57
2024/01/27 09:28:30;;;;;;;5.60;2.73;;;;;;;21.19;30.46;95475.09;6215512;27;108856;-57
2024/01/27 09:31:34;;;;;;;6.47;3.00;;;;;;;21.23;30.45;95494.72;6226870;28;109672;-57
2024/01/27 09:34:38;;;;;;;6.67;3.93;;;;;;;21.26;29.99;95494.13;6223365;27;110175;-57
2024/01/27 09:37:43;;;;;;;9.60;4.53;;;;;;;21.25;30.20;95521.03;6231743;28;109462;-57
2024/01/27 09:40:47;;;;;;;14.00;6.40;;;;;;;21.25;30.38;95513.06;6219851;28;109174;-56
2024/01/27 09:43:51;;;;;;;7.33;6.40;;;;;;;21.17;30.74;95520.63;6225101;28;109962;-55
2024/01/27 09:46:55;;;;;;;7.50;6.77;;;;;;;21.22;30.72;95527.75;6227782;27;109478;-56
2024/01/27 09:50:00;;;;;;;8.90;7.73;;;;;;;21.22;30.72;95546.38;6222619;27;109272;-57
2024/01/27 09:53:07;;;;;;;8.87;7.47;;;;;;;21.20;30.70;95536.00;6227300;27;109052;-56
2024/01/27 09:56:17;;;;;;;16.27;9.17;;;;;;;21.26;30.72;95563.34;6214456;27;109117;-57
2024/01/27 09:59:21;;;;;;;10.37;9.00;;;;;;;21.25;30.70;95537.00;6216761;28;109104;-57
2024/01/27 10:02:26;;;;;;;10.30;9.10;;;;;;;21.24;31.06;95544.22;6231085;27;109132;-57
2024/01/27 10:05:36;;;;;;;11.00;9.70;;;;;;;21.25;30.81;95553.78;6219885;28;108831;-57
2024/01/27 10:08:39;;;;;;;12.30;10.37;;;;;;;21.21;30.73;95532.28;6207472;27;109893;-57
2024/01/27 10:11:47;;;;;;;14.40;11.13;;;;;;;21.19;30.60;95555.72;6216189;28;110163;-57
2024/01/27 10:14:51;;;;;;;11.70;10.50;;;;;;;21.22;30.52;95578.31;6229125;27;109616;-56
2024/01/27 10:18:05;;;;;;;11.53;10.37;;;;;;;21.23;30.66;95550.59;6222902;27;109267;-60
2024/01/27 10:21:18;;;;;;;10.70;9.20;;;;;;;21.21;30.46;95547.44;6221336;28;109334;-57
2024/01/27 10:24:22;;;;;;;11.80;7.40;;;;;;;21.20;30.61;95543.19;6233120;27;108967;-57
2024/01/27 10:27:25;;;;;;;10.57;7.37;;;;;;;21.23;30.91;95558.59;6222837;28;108800;-57
2024/01/27 10:30:28;;;;;;;9.63;7.67;;;;;;;21.47;31.14;95535.34;6201619;27;109974;-56
2024/01/27 10:33:31;;;;;;;9.70;7.37;;;;;;;21.48;30.97;95555.56;6228707;28;109187;-55
2024/01/27 10:36:42;;;;;;;17.23;7.13;;;;;;;21.36;30.79;95560.53;6222261;27;109328;-56
2024/01/27 10:39:47;;;;;;;10.90;6.50;;;;;;;21.34;30.97;95553.91;6213183;28;109067;-57
2024/01/27 10:43:02;;;;;;;8.90;5.70;;;;;;;21.33;30.89;95570.94;6224233;28;109142;-57
2024/01/27 10:46:07;;;;;;;6.97;6.23;;;;;;;21.33;30.54;95576.28;6238322;28;112071;-57
2024/01/27 10:49:14;;;;;;;7.43;5.60;;;;;;;21.32;30.38;95577.34;6237621;27;108884;-62
2024/01/27 10:52:22;;;;;;;8.53;5.27;;;;;;;21.31;30.45;95565.91;6227444;27;110396;-60
2024/01/27 10:55:25;;;;;;;8.20;5.47;;;;;;;21.32;30.23;95594.13;6237830;27;109291;-61
2024/01/27 10:58:31;;;;;;;6.10;4.80;;;;;;;21.32;29.93;95594.13;6237283;27;110096;-61
2024/01/27 11:01:37;;;;;;;5.10;4.60;;;;;;;21.29;29.86;95586.72;6237315;27;109139;-62
2024/01/27 11:04:43;;;;;;;5.53;4.07;;;;;;;21.28;29.74;95603.78;6226723;27;109049;-61
2024/01/27 11:07:49;;;;;;;5.23;4.60;;;;;;;21.28;30.07;95598.44;6236509;27;109557;-60
2024/01/27 11:10:52;;;;;;;5.00;4.30;;;;;;;21.25;29.67;95612.34;6236961;27;109720;-61
2024/01/27 11:13:55;;;;;;;4.77;4.10;;;;;;;21.24;30.11;95605.44;6237089;27;109102;-61
2024/01/27 11:16:58;;;;;;;5.40;3.80;;;;;;;21.24;29.89;95621.41;6227393;27;111429;-62
2024/01/27 11:20:01;;;;;;;4.13;3.50;;;;;;;21.20;29.87;95605.22;6212256;28;109103;-62
2024/01/27 11:23:14;;;;;;;4.40;4.00;;;;;;;21.20;29.91;95623.84;6221022;28;109829;-61
2024/01/27 11:26:20;;;;;;;4.33;3.50;;;;;;;21.20;29.76;95620.38;6226354;27;109225;-62
2024/01/27 11:29:26;;;;;;;3.53;3.10;;;;;;;21.19;29.54;95630.25;6236464;27;109196;-62
2024/01/27 11:32:29;;;;;;;4.47;3.10;;;;;;;21.20;29.77;95631.03;6236495;27;109172;-62
2024/01/27 11:35:32;;;;;;;3.37;3.07;;;;;;;21.18;29.35;95649.94;6236861;27;109106;-61
2024/01/27 11:38:37;;;;;;;6.87;3.30;;;;;;;21.18;29.44;95630.53;6225156;27;110074;-62
2024/01/27 11:41:42;;;;;;;3.40;2.67;;;;;;;21.16;29.64;95630.78;6235919;27;109393;-61
2024/01/27 11:44:46;;;;;;;4.57;3.03;;;;;;;21.17;29.70;95632.41;6236703;27;110063;-62
2024/01/27 11:47:49;;;;;;;4.97;3.13;;;;;;;21.17;29.43;95636.91;6236672;27;110238;-61
2024/01/27 11:51:07;;;;;;;4.40;2.80;;;;;;;21.15;29.65;95636.41;6226771;28;109617;-61
2024/01/27 11:54:12;;;;;;;2.83;2.53;;;;;;;21.15;29.38;95642.50;6234459;27;109525;-61
2024/01/27 11:57:16;;;;;;;4.33;2.90;;;;;;;21.16;29.20;95653.94;6236246;27;110447;-62
2024/01/27 12:00:19;;;;;;;3.33;2.33;;;;;;;21.15;29.41;95645.19;6209236;27;110883;-62
2024/01/27 12:03:22;;;;;;;3.33;2.23;;;;;;;21.13;29.47;95646.53;6220009;28;109361;-62
2024/01/27 12:06:26;;;;;;;4.60;2.83;;;;;;;21.13;29.25;95643.88;6236557;27;109921;-62
2024/01/27 12:09:30;;;;;;;4.37;2.20;;;;;;;21.13;29.06;95639.34;6235355;27;108915;-62
2024/01/27 12:12:33;;;;;;;3.50;2.20;;;;;;;21.13;29.37;95649.19;6225253;27;109124;-62
2024/01/27 12:15:36;;;;;;;3.00;2.30;;;;;;;21.13;29.00;95641.22;6235722;27;109078;-62
2024/01/27 12:18:40;;;;;;;3.67;1.77;;;;;;;21.14;29.20;95661.44;6235883;27;109424;-62
2024/01/27 12:21:48;;;;;;;2.20;2.00;;;;;;;21.12;29.22;95658.25;6236089;27;110291;-62
2024/01/27 12:24:53;;;;;;;2.40;2.13;;;;;;;21.12;28.96;95660.94;6225010;27;109881;-62
2024/01/27 12:28:00;;;;;;;2.43;1.97;;;;;;;21.12;29.08;95644.97;6235441;27;108662;-62
2024/01/27 12:31:05;;;;;;;2.30;2.03;;;;;;;21.14;29.02;95645.47;6235886;27;109110;-61
2024/01/27 12:34:08;;;;;;;2.20;1.83;;;;;;;21.14;28.84;95648.91;6230347;27;110319;-62
2024/01/27 12:37:12;;;;;;;2.17;1.73;;;;;;;21.11;29.17;95652.16;6231314;27;109979;-60
2024/01/27 12:40:20;;;;;;;2.40;1.90;;;;;;;21.16;29.09;95640.63;6234653;27;109428;-60
2024/01/27 12:43:26;;;;;;;2.23;1.73;;;;;;;21.16;28.80;95648.63;6235731;27;109922;-61
2024/01/27 12:46:29;;;;;;;2.07;1.60;;;;;;;21.16;29.20;95648.63;6224920;27;108941;-61
2024/01/27 12:49:32;;;;;;;2.87;2.00;;;;;;;21.17;28.88;95648.38;6235384;27;109217;-60
2024/01/27 12:52:36;;;;;;;2.63;1.77;;;;;;;21.18;29.03;95665.13;6236048;27;110048;-61
2024/01/27 12:55:41;;;;;;;2.83;1.63;;;;;;;21.20;28.62;95673.63;6209671;28;110107;-61
2024/01/27 12:58:44;;;;;;;2.43;1.47;;;;;;;21.18;28.83;95665.91;6208217;28;109164;-62
2024/01/27 13:01:47;;;;;;;1.77;1.57;;;;;;;21.20;28.91;95676.28;6235539;27;109333;-62
2024/01/27 13:04:50;;;;;;;2.10;1.80;;;;;;;21.18;28.91;95673.13;6235214;27;109569;-61
2024/01/27 13:07:53;;;;;;;2.20;2.00;;;;;;;21.19;28.64;95686.13;6230327;27;109163;-61
2024/01/27 13:10:58;;;;;;;5.13;1.57;;;;;;;21.18;28.48;95670.44;6228305;27;109254;-61
2024/01/27 13:14:02;;;;;;;3.90;2.40;;;;;;;21.20;28.80;95686.94;6234286;27;109310;-61
2024/01/27 13:17:05;;;;;;;5.43;1.97;;;;;;;21.20;28.73;95686.94;6234411;27;109127;-61
2024/01/27 13:20:09;;;;;;;5.80;1.87;;;;;;;21.19;28.66;95688.78;6223923;27;109336;-61
2024/01/27 13:23:12;;;;;;;5.87;1.80;;;;;;;21.19;28.85;95693.31;6234713;27;109098;-61
2024/01/27 13:26:16;;;;;;;3.27;2.13;;;;;;;21.19;28.84;95690.66;6234531;28;111883;-60
2024/01/27 13:29:23;;;;;;;3.63;1.97;;;;;;;21.19;28.73;95696.00;6235028;27;108763;-60
2024/01/27 13:32:26;;;;;;;4.57;2.10;;;;;;;21.17;28.59;95692.78;6225023;27;109305;-61
2024/01/27 13:35:29;;;;;;;8.07;2.27;;;;;;;21.18;28.60;95691.75;6234313;27;110491;-61
2024/01/27 13:38:33;;;;;;;6.67;2.00;;;;;;;21.18;28.47;95687.22;6234196;27;109357;-62
2024/01/27 13:41:38;;;;;;;4.57;2.10;;;;;;;21.18;28.59;95689.09;6233396;28;110088;-61
2024/01/27 13:44:41;;;;;;;5.23;2.00;;;;;;;21.17;28.63;95701.59;6223573;27;109539;-62
2024/01/27 13:47:45;;;;;;;4.63;2.30;;;;;;;21.18;28.74;95707.72;6233838;27;109381;-62
2024/01/27 13:50:48;;;;;;;6.03;2.13;;;;;;;21.17;28.41;95714.91;6233874;27;109395;-62
2024/01/27 13:53:51;;;;;;;12.20;2.20;;;;;;;21.17;28.41;95724.72;6226756;27;109109;-61
2024/01/27 13:56:56;;;;;;;7.07;1.93;;;;;;;21.18;28.32;95723.69;6232629;28;113076;-62
2024/01/27 13:59:59;;;;;;;4.33;1.60;;;;;;;21.18;28.59;95731.66;6233763;27;109478;-62
2024/01/27 14:03:02;;;;;;;5.60;1.80;;;;;;;21.18;28.71;95743.09;6233954;27;109178;-61
2024/01/27 14:06:07;;;;;;;5.77;1.77;;;;;;;21.17;28.73;95732.72;6202794;28;110122;-62
2024/01/27 14:09:11;;;;;;;5.90;1.80;;;;;;;21.18;28.31;95719.16;6226110;28;109655;-62
2024/01/27 14:12:16;;;;;;;3.93;1.50;;;;;;;21.16;28.54;95736.44;6241464;27;110242;-62
2024/01/27 14:15:20;;;;;;;6.60;2.07;;;;;;;21.17;28.38;95711.41;6242481;27;110071;-61
2024/01/27 14:18:24;;;;;;;3.30;1.57;;;;;;;21.17;28.61;95738.03;6231141;27;109295;-61